Terminal Aerodrome Forecast
Issued by NWS

Current Version | Previous Version | Graphics & Text | Print | Product List | Glossary On
Versions: 1 2 3 4 5 6 7 8 9 10 11 12 13 14 15
000
FTUS41 KPBZ 220520
TAFMGW
TAF
KMGW 220520Z 2206/2306 VRB02KT 6SM BR SKC
     FM220800 00000KT 3SM BR SKC
      TEMPO 2209/2212 1/2SM FG OVC003
     FM221200 VRB03KT P6SM BKN250=

USA.gov is the U.S. government's official web portal to all federal, state and local government web resources and services.